createdAt,value
2022-12-01T00:02:03.429Z,16.70
2022-12-01T00:12:02.903Z,14.40
2022-12-01T00:22:02.403Z,13.50
2022-12-01T00:32:02.079Z,14.90
2022-12-01T00:42:01.786Z,13.60
2022-12-01T00:52:01.247Z,14.40
2022-12-01T01:02:00.928Z,15.00
2022-12-01T01:12:00.504Z,14.80
2022-12-01T01:22:00.288Z,14.20
2022-12-01T01:31:59.897Z,14.30
2022-12-01T01:41:59.693Z,15.80
2022-12-01T01:51:59.140Z,14.10
2022-12-01T02:01:58.793Z,16.10
2022-12-01T02:11:53.099Z,15.40
2022-12-01T02:21:52.873Z,17.70
2022-12-01T02:31:52.361Z,16.70
2022-12-01T02:41:52.112Z,15.20
2022-12-01T02:51:51.602Z,15.40
2022-12-01T03:01:51.268Z,16.40
2022-12-01T03:11:51.009Z,15.40
2022-12-01T03:21:50.506Z,17.50
2022-12-01T03:31:50.128Z,19.80
2022-12-01T03:41:49.744Z,20.00
2022-12-01T03:51:49.364Z,20.70
2022-12-01T04:01:49.330Z,18.60
2022-12-01T04:11:48.781Z,18.30
2022-12-01T04:21:48.433Z,20.30
2022-12-01T04:31:48.029Z,20.80
2022-12-01T04:41:47.527Z,18.70
2022-12-01T04:51:47.155Z,15.20
2022-12-01T05:01:47.050Z,18.60
2022-12-01T05:11:46.573Z,22.20
2022-12-01T05:21:46.387Z,18.40
2022-12-01T05:31:45.764Z,20.50
2022-12-01T05:41:45.469Z,21.80
2022-12-01T05:51:45.105Z,21.60
2022-12-01T06:01:44.871Z,20.00
2022-12-01T06:11:44.375Z,19.10
2022-12-01T06:21:43.855Z,21.70
2022-12-01T06:31:43.536Z,19.10
2022-12-01T06:41:43.464Z,19.10
2022-12-01T06:51:37.621Z,18.50
2022-12-01T07:01:37.618Z,17.30
2022-12-01T07:11:36.874Z,16.80
2022-12-01T07:21:36.513Z,17.00
2022-12-01T07:31:36.294Z,14.60
2022-12-01T07:41:35.940Z,13.40
2022-12-01T07:51:35.540Z,12.90
2022-12-01T08:01:35.099Z,15.20
2022-12-01T08:11:34.654Z,15.20
2022-12-01T08:21:34.781Z,11.80
2022-12-01T08:31:33.918Z,13.10
2022-12-01T08:41:34.021Z,12.30
2022-12-01T08:51:33.184Z,13.90
2022-12-01T09:01:33.311Z,12.40
2022-12-01T09:11:32.423Z,14.10
2022-12-01T09:21:32.326Z,14.20
2022-12-01T09:31:31.730Z,10.60
2022-12-01T09:41:31.295Z,12.50
2022-12-01T09:51:31.098Z,12.40
2022-12-01T10:01:30.786Z,12.30
2022-12-01T10:11:30.205Z,17.60
2022-12-01T10:21:30.013Z,19.10
2022-12-01T10:31:29.680Z,24.90
2022-12-01T10:41:29.272Z,22.70
2022-12-01T10:51:28.906Z,23.70
2022-12-01T11:01:23.526Z,25.50
2022-12-01T11:11:22.881Z,27.50
2022-12-01T11:21:22.658Z,27.50
2022-12-01T11:31:22.348Z,31.50
2022-12-01T11:41:21.933Z,30.00
2022-12-01T11:51:21.414Z,32.30
2022-12-01T12:01:22.064Z,32.50
2022-12-01T12:11:20.833Z,29.40
2022-12-01T12:21:20.495Z,28.00
2022-12-01T12:31:20.007Z,29.70
2022-12-01T12:41:19.951Z,32.80
2022-12-01T12:51:19.222Z,30.00
2022-12-01T13:01:19.076Z,34.20
2022-12-01T13:11:18.480Z,35.30
2022-12-01T13:21:18.378Z,36.10
2022-12-01T13:31:17.956Z,43.20
2022-12-01T13:41:17.423Z,41.00
2022-12-01T13:51:17.028Z,30.70
2022-12-01T14:01:16.842Z,32.90
2022-12-01T14:11:16.291Z,29.50
2022-12-01T14:21:16.279Z,28.10
2022-12-01T14:31:15.787Z,28.90
2022-12-01T14:41:19.622Z,26.70
2022-12-01T14:51:14.974Z,29.40
2022-12-01T15:01:14.479Z,26.30
2022-12-01T15:11:14.450Z,30.20
2022-12-01T15:21:13.738Z,24.00
2022-12-01T15:31:08.344Z,26.40
2022-12-01T15:41:29.880Z,29.20
2022-12-01T15:51:07.595Z,30.90
2022-12-01T16:01:07.401Z,33.80
2022-12-01T16:11:07.000Z,30.50
2022-12-01T16:21:06.815Z,39.70
2022-12-01T16:31:07.568Z,41.60
2022-12-01T16:41:05.923Z,44.00
2022-12-01T16:51:05.424Z,42.20
2022-12-01T17:01:05.099Z,36.00
2022-12-01T17:11:04.684Z,35.40
2022-12-01T17:21:04.459Z,35.10
2022-12-01T17:31:03.965Z,38.10
2022-12-01T17:41:03.568Z,37.10
2022-12-01T17:51:03.223Z,39.30
2022-12-01T18:01:02.995Z,31.40
2022-12-01T18:10:57.348Z,28.50
2022-12-01T18:20:57.115Z,29.60
2022-12-01T18:30:56.825Z,32.30
2022-12-01T18:40:56.394Z,34.10
2022-12-01T18:50:59.379Z,33.30
2022-12-01T19:00:55.723Z,25.80
2022-12-01T19:10:55.264Z,29.80
2022-12-01T19:20:54.893Z,28.00
2022-12-01T19:30:54.414Z,24.60
2022-12-01T19:40:53.990Z,27.80
2022-12-01T19:50:53.751Z,31.30
2022-12-01T20:00:53.282Z,31.60
2022-12-01T20:10:52.847Z,27.70
2022-12-01T20:20:52.489Z,29.20
2022-12-01T20:30:52.270Z,29.70
2022-12-01T20:40:46.773Z,34.90
2022-12-01T20:50:46.397Z,31.10
2022-12-01T21:00:46.087Z,33.90
2022-12-01T21:10:45.482Z,30.60
2022-12-01T21:20:45.247Z,32.70
2022-12-01T21:30:44.903Z,28.60
2022-12-01T21:40:44.480Z,32.80
2022-12-01T21:50:44.758Z,33.40
2022-12-01T22:00:43.939Z,33.00
2022-12-01T22:10:43.234Z,26.10
2022-12-01T22:20:42.980Z,23.00
2022-12-01T22:30:42.511Z,25.50
2022-12-01T22:40:42.615Z,24.10
2022-12-01T22:50:41.857Z,26.30
2022-12-01T23:00:41.645Z,18.90
2022-12-01T23:10:35.926Z,17.10
2022-12-01T23:20:35.878Z,18.80
2022-12-01T23:30:35.356Z,18.10
2022-12-01T23:40:35.012Z,17.90
2022-12-01T23:50:34.429Z,20.20
